Time;durP1;ratioP1;P1;durP2;ratioP2;P2;SDS_P1;SDS_P2;PMS_P1;PMS_P2;Temp;Humidity;BMP_temperature;BMP_pressure;BME280_temperature;BME280_humidity;BME280_pressure;Samples;Min_cycle;Max_cycle;Signal;HPM_P1;HPM_P2
2023/10/31 00:01:52;;;;;;;13.93;7.13;;;12.10;99.90;;;;;;4226041;27;20255;-77
2023/10/31 00:03:54;;;;;;;10.67;6.20;;;12.10;99.90;;;;;;4225648;28;20261;-77
2023/10/31 00:05:55;;;;;;;11.50;6.87;;;12.00;99.90;;;;;;4227428;28;20219;-76
2023/10/31 00:07:57;;;;;;;10.53;6.60;;;12.00;99.90;;;;;;4226175;28;20204;-77
2023/10/31 00:09:59;;;;;;;11.07;6.53;;;12.00;99.90;;;;;;4228918;28;20204;-77
2023/10/31 00:12:02;;;;;;;14.23;6.47;;;12.00;99.90;;;;;;4218814;28;20213;-77
2023/10/31 00:14:04;;;;;;;10.43;6.77;;;12.00;99.90;;;;;;4231841;28;20291;-76
2023/10/31 00:16:06;;;;;;;12.17;6.83;;;12.00;99.90;;;;;;4228812;27;20265;-77
2023/10/31 00:18:08;;;;;;;10.67;6.13;;;12.00;99.90;;;;;;4214177;28;20637;-77
2023/10/31 00:20:10;;;;;;;11.73;6.67;;;12.00;99.90;;;;;;4226112;28;20200;-78
2023/10/31 00:22:11;;;;;;;10.50;6.67;;;11.90;99.90;;;;;;4229857;28;20282;-77
2023/10/31 00:24:13;;;;;;;10.20;5.93;;;12.00;99.90;;;;;;4227506;27;20276;-78
2023/10/31 00:26:16;;;;;;;10.80;6.43;;;11.90;99.90;;;;;;4222730;28;20237;-77
2023/10/31 00:28:19;;;;;;;11.27;6.10;;;11.90;99.90;;;;;;4225316;27;20754;-77
2023/10/31 00:30:21;;;;;;;10.23;6.93;;;11.90;99.90;;;;;;4225368;27;20259;-77
2023/10/31 00:32:23;;;;;;;11.67;7.27;;;11.90;99.90;;;;;;4226191;27;20215;-78
2023/10/31 00:34:25;;;;;;;19.87;9.07;;;11.90;99.90;;;;;;4223150;27;20315;-78
2023/10/31 00:36:27;;;;;;;12.47;7.87;;;11.90;99.90;;;;;;4224903;27;20203;-78
2023/10/31 00:38:29;;;;;;;14.67;8.43;;;12.00;99.90;;;;;;4230682;27;20213;-79
2023/10/31 00:40:31;;;;;;;16.20;8.20;;;11.90;99.90;;;;;;4232595;27;20212;-78
2023/10/31 00:42:33;;;;;;;15.27;8.67;;;11.90;99.90;;;;;;4230259;27;20200;-77
2023/10/31 00:44:36;;;;;;;13.07;7.87;;;11.90;99.90;;;;;;4226773;28;20290;-78
2023/10/31 00:46:37;;;;;;;13.90;8.67;;;11.90;99.90;;;;;;4226138;28;20212;-78
2023/10/31 00:48:39;;;;;;;16.50;10.27;;;11.80;99.90;;;;;;4224352;27;21087;-79
2023/10/31 00:50:41;;;;;;;16.53;8.77;;;11.80;99.90;;;;;;4229375;27;20744;-78
2023/10/31 00:52:45;;;;;;;21.03;11.10;;;11.80;99.90;;;;;;4229904;27;20662;-78
2023/10/31 00:54:47;;;;;;;15.30;9.33;;;11.80;99.90;;;;;;4227601;28;20220;-79
2023/10/31 00:56:48;;;;;;;20.53;10.80;;;11.70;99.90;;;;;;4228399;27;20677;-77
2023/10/31 00:58:50;;;;;;;18.07;11.33;;;11.70;99.90;;;;;;4222206;28;20249;-79
2023/10/31 01:00:54;;;;;;;17.07;9.80;;;11.70;99.90;;;;;;4227629;28;20207;-78
2023/10/31 01:02:57;;;;;;;17.33;11.37;;;11.70;99.90;;;;;;4232570;27;20224;-78
2023/10/31 01:04:58;;;;;;;20.17;11.87;;;11.70;99.90;;;;;;4231858;27;20729;-78
2023/10/31 01:07:00;;;;;;;20.10;11.83;;;11.70;99.90;;;;;;4227070;27;20281;-78
2023/10/31 01:09:03;;;;;;;22.10;11.90;;;11.70;99.90;;;;;;4225385;28;20240;-78
2023/10/31 01:11:05;;;;;;;21.43;12.93;;;11.70;99.90;;;;;;4232708;27;20216;-78
2023/10/31 01:13:06;;;;;;;21.20;12.47;;;11.50;99.90;;;;;;4231475;27;20232;-79
2023/10/31 01:15:09;;;;;;;22.33;13.47;;;11.60;99.90;;;;;;4226411;27;20268;-79
2023/10/31 01:17:12;;;;;;;24.97;14.37;;;11.60;99.90;;;;;;4224960;27;20204;-79
2023/10/31 01:19:14;;;;;;;22.30;13.27;;;11.70;99.90;;;;;;4228429;28;20667;-78
2023/10/31 01:21:16;;;;;;;32.83;16.80;;;11.60;99.90;;;;;;4224625;28;20218;-78
2023/10/31 01:23:18;;;;;;;28.47;15.97;;;11.60;99.90;;;;;;4228206;27;20229;-77
2023/10/31 01:25:20;;;;;;;28.30;17.13;;;11.60;99.90;;;;;;4230694;27;20282;-77
2023/10/31 01:27:21;;;;;;;32.37;17.30;;;11.60;99.90;;;;;;4232237;28;20233;-78
2023/10/31 01:29:22;;;;;;;35.30;17.87;;;11.60;99.90;;;;;;4234612;27;20265;-78
2023/10/31 01:31:24;;;;;;;27.83;16.83;;;11.50;99.90;;;;;;4231864;28;20197;-78
2023/10/31 01:33:28;;;;;;;25.80;15.47;;;11.50;99.90;;;;;;4227406;28;20248;-79
2023/10/31 01:35:30;;;;;;;27.53;15.27;;;11.50;99.90;;;;;;4229753;28;20257;-78
2023/10/31 01:37:30;;;;;;;34.17;17.00;;;11.60;99.90;;;;;;4231223;27;20253;-79
2023/10/31 01:39:32;;;;;;;34.07;17.57;;;11.60;99.90;;;;;;4230932;28;20192;-78
2023/10/31 01:41:34;;;;;;;32.53;18.77;;;11.50;99.90;;;;;;4235657;27;20197;-78
2023/10/31 01:43:37;;;;;;;38.87;18.93;;;11.70;99.90;;;;;;4232509;27;20227;-78
2023/10/31 01:45:39;;;;;;;36.63;18.93;;;11.60;99.90;;;;;;4231169;27;20729;-78
2023/10/31 01:47:41;;;;;;;38.57;19.77;;;11.50;99.90;;;;;;4229702;28;20213;-78
2023/10/31 01:49:45;;;;;;;33.33;19.40;;;11.50;99.90;;;;;;4230251;27;20264;-78
2023/10/31 01:51:47;;;;;;;31.10;18.17;;;11.50;99.90;;;;;;4226043;27;20208;-78
2023/10/31 01:53:49;;;;;;;34.90;16.80;;;11.60;99.90;;;;;;4227580;28;20225;-78
2023/10/31 01:55:51;;;;;;;32.70;17.47;;;11.50;99.90;;;;;;4224540;28;20205;-78
2023/10/31 01:57:53;;;;;;;34.67;17.80;;;11.50;99.90;;;;;;4226977;28;20275;-78
2023/10/31 01:59:54;;;;;;;27.33;16.40;;;11.60;99.90;;;;;;4227288;28;20209;-78
2023/10/31 02:01:57;;;;;;;30.10;16.43;;;11.50;99.90;;;;;;4221976;27;20200;-78
2023/10/31 02:04:02;;;;;;;32.63;16.47;;;11.50;99.90;;;;;;4225860;28;20296;-78
2023/10/31 02:06:06;;;;;;;34.53;16.97;;;11.60;99.90;;;;;;4229108;28;20287;-78
2023/10/31 02:08:08;;;;;;;29.50;16.50;;;11.50;99.90;;;;;;4230056;28;20724;-78
2023/10/31 02:10:10;;;;;;;32.87;17.37;;;11.50;99.90;;;;;;4223126;28;20201;-78
2023/10/31 02:12:12;;;;;;;36.77;18.40;;;11.60;99.90;;;;;;4226749;28;20722;-78
2023/10/31 02:14:13;;;;;;;36.50;17.97;;;11.60;99.90;;;;;;4229228;28;20632;-78
2023/10/31 02:16:15;;;;;;;35.80;17.90;;;11.50;99.90;;;;;;4228343;28;20208;-78
2023/10/31 02:18:17;;;;;;;33.80;18.30;;;11.60;99.90;;;;;;4225839;27;20221;-78
2023/10/31 02:20:19;;;;;;;32.73;16.87;;;11.50;99.90;;;;;;4222938;27;20258;-78
2023/10/31 02:22:23;;;;;;;34.00;16.90;;;11.50;99.90;;;;;;4228864;28;20200;-78
2023/10/31 02:24:25;;;;;;;35.80;17.90;;;11.60;99.90;;;;;;4226243;28;20225;-78
2023/10/31 02:26:30;;;;;;;37.77;18.33;;;11.60;99.90;;;;;;4228861;28;20755;-78
2023/10/31 02:28:32;;;;;;;39.33;19.07;;;11.50;99.90;;;;;;4223995;28;20201;-78
2023/10/31 02:30:35;;;;;;;34.33;17.53;;;11.60;99.90;;;;;;4221242;28;20208;-78
2023/10/31 02:32:36;;;;;;;36.17;19.03;;;11.60;99.90;;;;;;4228951;27;20238;-78
2023/10/31 02:34:38;;;;;;;36.43;18.43;;;11.60;99.90;;;;;;4227742;28;20197;-78
2023/10/31 02:36:40;;;;;;;45.87;20.57;;;11.60;99.90;;;;;;4229152;27;20204;-78
2023/10/31 02:38:44;;;;;;;41.80;21.23;;;11.60;99.90;;;;;;4227861;28;20209;-78
2023/10/31 02:40:45;;;;;;;45.47;22.77;;;11.70;99.90;;;;;;4223758;27;20265;-78
2023/10/31 02:42:47;;;;;;;42.03;20.60;;;11.60;99.90;;;;;;4219853;28;20293;-77
2023/10/31 02:44:47;;;;;;;48.77;21.83;;;11.60;99.90;;;;;;4225041;28;20196;-78
2023/10/31 02:46:49;;;;;;;36.13;20.20;;;11.60;99.90;;;;;;4224864;27;20227;-77
2023/10/31 02:48:51;;;;;;;38.83;20.50;;;11.60;99.90;;;;;;4226494;28;20207;-78
2023/10/31 02:50:53;;;;;;;34.83;18.47;;;11.60;99.90;;;;;;4226180;27;20239;-77
2023/10/31 02:52:55;;;;;;;38.83;18.53;;;11.60;99.90;;;;;;4221576;28;20204;-77
2023/10/31 02:54:58;;;;;;;35.37;18.93;;;11.60;99.90;;;;;;4223563;28;20206;-77
2023/10/31 02:56:59;;;;;;;34.80;18.00;;;11.60;99.90;;;;;;4225576;27;20683;-77
2023/10/31 02:59:01;;;;;;;32.30;17.00;;;11.60;99.90;;;;;;4231689;27;20216;-78
2023/10/31 03:01:04;;;;;;;26.13;14.80;;;11.60;99.90;;;;;;4227987;27;20208;-77
2023/10/31 03:03:05;;;;;;;29.23;17.07;;;11.60;99.90;;;;;;4225954;28;20280;-78
2023/10/31 03:05:08;;;;;;;27.23;14.93;;;11.60;99.90;;;;;;4224801;27;20253;-78
2023/10/31 03:07:10;;;;;;;26.93;14.63;;;11.60;99.90;;;;;;4222956;27;20224;-78
2023/10/31 03:09:12;;;;;;;31.50;14.73;;;11.60;99.90;;;;;;4225083;27;20213;-78
2023/10/31 03:11:22;;;;;;;28.37;13.63;;;11.60;99.90;;;;;;4225327;27;20278;-78
2023/10/31 03:13:24;;;;;;;25.57;12.90;;;11.70;99.90;;;;;;4224184;27;20944;-78
2023/10/31 03:15:27;;;;;;;21.67;11.97;;;11.60;99.90;;;;;;4224243;28;20204;-79
2023/10/31 03:17:29;;;;;;;20.37;12.20;;;11.60;99.90;;;;;;4223529;28;20208;-77
2023/10/31 03:19:31;;;;;;;19.37;11.83;;;11.60;99.90;;;;;;4227184;27;20208;-76
2023/10/31 03:21:33;;;;;;;26.80;12.80;;;11.60;99.90;;;;;;4223533;28;20200;-79
2023/10/31 03:23:35;;;;;;;20.27;11.83;;;11.60;99.90;;;;;;4231770;27;20281;-78
2023/10/31 03:25:37;;;;;;;23.00;12.27;;;11.60;99.90;;;;;;4229575;27;20220;-78
2023/10/31 03:27:41;;;;;;;26.83;11.80;;;11.60;99.90;;;;;;4229208;27;20223;-77
2023/10/31 03:29:42;;;;;;;22.67;11.83;;;11.60;99.90;;;;;;4225249;28;20213;-77
2023/10/31 03:31:47;;;;;;;19.30;11.67;;;11.60;99.90;;;;;;4226502;28;20205;-78
2023/10/31 03:33:49;;;;;;;25.03;12.37;;;11.60;99.90;;;;;;4224270;28;20248;-78
2023/10/31 03:35:51;;;;;;;19.57;10.93;;;11.60;99.90;;;;;;4224895;27;20253;-78
2023/10/31 03:37:53;;;;;;;18.90;11.37;;;11.60;99.90;;;;;;4223697;28;20660;-78
2023/10/31 03:39:55;;;;;;;16.30;10.50;;;11.60;99.90;;;;;;4223171;28;20253;-77
2023/10/31 03:41:56;;;;;;;22.53;11.43;;;11.60;99.90;;;;;;4220841;28;20258;-77
2023/10/31 03:44:00;;;;;;;22.53;11.13;;;11.70;99.90;;;;;;4221814;28;20290;-78
2023/10/31 03:46:02;;;;;;;24.60;13.13;;;11.60;99.90;;;;;;4222761;27;20209;-78
2023/10/31 03:48:04;;;;;;;18.10;10.47;;;11.60;99.90;;;;;;4224434;28;20216;-78
2023/10/31 03:50:08;;;;;;;26.23;11.00;;;11.70;99.90;;;;;;4221268;28;20219;-78
2023/10/31 03:52:10;;;;;;;19.97;11.20;;;11.60;99.90;;;;;;4219599;28;20208;-78
2023/10/31 03:54:12;;;;;;;20.10;10.73;;;11.60;99.90;;;;;;4223742;28;20306;-77
2023/10/31 03:56:14;;;;;;;20.43;11.07;;;11.60;99.90;;;;;;4221836;28;20209;-78
2023/10/31 03:58:16;;;;;;;21.87;11.53;;;11.60;99.90;;;;;;4226183;28;20214;-78
2023/10/31 04:00:20;;;;;;;20.00;11.20;;;11.60;99.90;;;;;;4231974;28;20213;-77
2023/10/31 04:02:22;;;;;;;22.23;11.93;;;11.60;99.90;;;;;;4228703;28;20265;-77
2023/10/31 04:04:24;;;;;;;22.67;11.50;;;11.60;99.90;;;;;;4228377;27;20226;-78
2023/10/31 04:06:25;;;;;;;20.60;11.23;;;11.60;99.90;;;;;;4229790;27;20264;-77
2023/10/31 04:08:27;;;;;;;23.33;11.00;;;11.70;99.90;;;;;;4230846;27;20268;-77
2023/10/31 04:10:29;;;;;;;18.53;10.90;;;11.60;99.90;;;;;;4229211;27;20751;-78
2023/10/31 04:12:31;;;;;;;17.93;10.33;;;11.60;99.90;;;;;;4224388;27;20209;-78
2023/10/31 04:14:33;;;;;;;24.60;11.60;;;11.60;99.90;;;;;;4231908;27;20220;-78
2023/10/31 04:16:39;;;;;;;16.17;9.80;;;11.70;99.90;;;;;;4229670;28;20274;-78
2023/10/31 04:18:41;;;;;;;18.53;9.80;;;11.60;99.90;;;;;;4225542;27;20215;-78
2023/10/31 04:20:44;;;;;;;17.97;8.90;;;11.70;99.90;;;;;;4228334;28;20209;-78
2023/10/31 04:22:44;;;;;;;13.80;7.93;;;11.70;99.90;;;;;;4228116;28;20209;-78
2023/10/31 04:24:46;;;;;;;14.27;7.13;;;11.70;99.90;;;;;;4229657;28;20253;-78
2023/10/31 04:26:50;;;;;;;12.07;6.23;;;11.70;99.90;;;;;;4229133;27;20232;-77
2023/10/31 04:28:52;;;;;;;8.10;5.37;;;11.70;99.90;;;;;;4227283;28;20257;-78
2023/10/31 04:30:54;;;;;;;8.90;4.93;;;11.70;99.90;;;;;;4224833;27;20208;-78
2023/10/31 04:32:57;;;;;;;6.77;4.47;;;11.70;99.90;;;;;;4221390;28;20669;-78
2023/10/31 04:34:59;;;;;;;7.20;3.90;;;11.70;99.90;;;;;;4229153;28;20204;-78
2023/10/31 04:37:01;;;;;;;5.57;3.77;;;11.80;99.90;;;;;;4225709;28;20262;-78
2023/10/31 04:39:02;;;;;;;6.67;3.90;;;11.70;99.90;;;;;;4230522;27;20208;-77
2023/10/31 04:41:04;;;;;;;5.97;3.80;;;11.70;99.90;;;;;;4227812;28;20220;-78
2023/10/31 04:43:06;;;;;;;5.80;3.53;;;11.70;99.90;;;;;;4230939;28;20589;-78
2023/10/31 04:45:09;;;;;;;4.73;3.47;;;11.70;99.90;;;;;;4226458;27;20217;-78
2023/10/31 04:47:11;;;;;;;5.70;3.20;;;11.70;99.90;;;;;;4226989;28;20239;-78
2023/10/31 04:49:16;;;;;;;7.33;3.90;;;11.70;99.90;;;;;;4228971;28;20272;-78
2023/10/31 04:51:18;;;;;;;4.00;3.13;;;11.70;99.90;;;;;;4229397;28;20232;-78
2023/10/31 04:53:20;;;;;;;6.33;3.13;;;11.70;99.90;;;;;;4226326;27;20765;-78
2023/10/31 04:55:21;;;;;;;5.87;3.43;;;11.70;99.90;;;;;;4229823;27;20222;-78
2023/10/31 04:57:23;;;;;;;6.20;3.10;;;11.70;99.90;;;;;;4228897;28;20743;-77
2023/10/31 04:59:25;;;;;;;5.50;3.20;;;11.70;99.90;;;;;;4231804;27;20205;-78
2023/10/31 05:01:27;;;;;;;4.57;2.87;;;11.70;99.90;;;;;;4228183;27;20211;-78
2023/10/31 05:03:29;;;;;;;3.37;2.53;;;11.70;99.90;;;;;;4224223;28;20249;-78
2023/10/31 05:05:32;;;;;;;3.77;2.70;;;11.80;99.90;;;;;;4221783;27;20201;-78
2023/10/31 05:07:33;;;;;;;3.50;2.33;;;11.80;99.90;;;;;;4222167;27;20220;-78
2023/10/31 05:09:35;;;;;;;3.87;2.10;;;11.80;99.90;;;;;;4224289;28;20254;-78
2023/10/31 05:11:37;;;;;;;3.83;2.40;;;11.80;99.90;;;;;;4224818;28;20250;-78
2023/10/31 05:13:39;;;;;;;5.17;2.00;;;11.60;99.90;;;;;;4222262;28;20273;-78
2023/10/31 05:15:41;;;;;;;3.00;1.90;;;11.80;99.90;;;;;;4223316;27;20229;-78
2023/10/31 05:17:43;;;;;;;4.77;1.90;;;11.80;99.90;;;;;;4225381;27;20242;-78
2023/10/31 05:19:45;;;;;;;2.30;1.50;;;11.70;99.90;;;;;;4228495;27;20216;-78
2023/10/31 05:21:48;;;;;;;2.73;1.83;;;11.80;99.90;;;;;;4221966;28;20332;-78
2023/10/31 05:23:49;;;;;;;3.17;1.70;;;11.80;99.90;;;;;;4225569;28;20228;-78
2023/10/31 05:25:51;;;;;;;8.53;1.80;;;11.80;99.90;;;;;;4230936;28;20253;-77
2023/10/31 05:27:52;;;;;;;3.33;1.57;;;11.80;99.90;;;;;;4225417;28;20228;-78
2023/10/31 05:29:54;;;;;;;2.57;1.70;;;11.80;99.90;;;;;;4225506;28;21263;-78
2023/10/31 05:31:55;;;;;;;2.67;1.70;;;11.70;99.90;;;;;;4224476;28;20195;-78
2023/10/31 05:33:57;;;;;;;3.93;1.80;;;11.70;99.90;;;;;;4228997;28;20777;-78
2023/10/31 05:35:59;;;;;;;2.20;1.40;;;11.70;99.90;;;;;;4225833;27;20218;-79
2023/10/31 05:38:03;;;;;;;3.17;1.50;;;11.70;99.90;;;;;;4224505;28;20197;-79
2023/10/31 05:40:06;;;;;;;2.80;1.50;;;11.70;99.90;;;;;;4226392;28;20210;-79
2023/10/31 05:42:08;;;;;;;1.90;1.50;;;11.70;99.90;;;;;;4223756;28;20209;-79
2023/10/31 05:44:10;;;;;;;1.70;1.50;;;11.70;99.90;;;;;;4228682;27;20227;-79
2023/10/31 05:46:13;;;;;;;2.40;1.37;;;11.60;99.90;;;;;;4229040;27;20209;-79
2023/10/31 05:48:16;;;;;;;1.37;1.20;;;11.60;99.90;;;;;;4229484;28;20592;-79
2023/10/31 05:50:18;;;;;;;2.50;1.50;;;11.60;99.90;;;;;;4235528;27;20602;-79
2023/10/31 05:52:20;;;;;;;2.10;1.30;;;11.60;99.90;;;;;;4226535;28;20620;-79
2023/10/31 05:54:24;;;;;;;1.83;1.10;;;11.60;99.90;;;;;;4225159;28;20229;-77
2023/10/31 05:56:26;;;;;;;1.60;1.10;;;11.60;99.90;;;;;;4227146;28;20236;-77
2023/10/31 05:58:28;;;;;;;2.37;1.20;;;11.50;99.90;;;;;;4226117;28;20613;-77
2023/10/31 06:00:30;;;;;;;3.93;1.10;;;11.50;99.90;;;;;;4227988;27;20205;-80
2023/10/31 06:02:32;;;;;;;4.23;1.40;;;11.50;99.90;;;;;;4226121;28;20214;-80
2023/10/31 06:04:34;;;;;;;1.80;1.20;;;11.60;99.90;;;;;;4225343;28;20316;-80
2023/10/31 06:06:39;;;;;;;1.80;1.10;;;11.40;99.90;;;;;;4230598;28;20611;-79
2023/10/31 06:08:41;;;;;;;2.93;1.07;;;11.50;99.90;;;;;;4219964;28;20610;-79
2023/10/31 06:10:44;;;;;;;3.00;1.00;;;11.50;99.90;;;;;;4222929;28;20254;-80
2023/10/31 06:12:46;;;;;;;2.40;1.20;;;11.50;99.90;;;;;;4227545;28;20663;-80
2023/10/31 06:14:48;;;;;;;1.83;1.10;;;11.50;99.90;;;;;;4230425;28;20562;-79
2023/10/31 06:16:50;;;;;;;3.33;0.90;;;11.40;99.90;;;;;;4229263;28;20257;-80
2023/10/31 06:18:52;;;;;;;2.40;1.50;;;11.40;99.90;;;;;;4226728;28;20226;-77
2023/10/31 06:20:53;;;;;;;1.83;1.10;;;11.40;99.90;;;;;;4223030;27;20204;-77
2023/10/31 06:22:55;;;;;;;1.80;1.07;;;11.40;99.90;;;;;;4225085;28;20265;-77
2023/10/31 06:24:58;;;;;;;2.60;1.40;;;11.40;99.90;;;;;;4225397;27;20561;-77
2023/10/31 06:27:01;;;;;;;5.60;1.27;;;11.30;99.90;;;;;;4227707;27;20206;-78
2023/10/31 06:29:03;;;;;;;1.20;0.90;;;11.30;99.90;;;;;;4227421;28;20242;-78
2023/10/31 06:31:05;;;;;;;1.70;1.20;;;11.30;99.90;;;;;;4225681;27;20258;-78
2023/10/31 06:33:08;;;;;;;1.07;1.00;;;11.30;99.90;;;;;;4226307;27;20707;-79
2023/10/31 06:35:10;;;;;;;2.20;1.00;;;11.20;99.90;;;;;;4226844;28;20217;-79
2023/10/31 06:37:12;;;;;;;1.37;1.10;;;11.20;99.90;;;;;;4229360;28;20205;-79
2023/10/31 06:39:13;;;;;;;1.93;1.00;;;11.30;99.90;;;;;;4228301;28;20204;-79
2023/10/31 06:41:15;;;;;;;1.80;1.33;;;11.20;99.90;;;;;;4232126;27;20228;-79
2023/10/31 06:43:17;;;;;;;1.47;1.00;;;11.20;99.90;;;;;;4228126;28;20220;-79
2023/10/31 06:45:19;;;;;;;1.10;1.00;;;11.20;99.90;;;;;;4229016;28;20274;-79
2023/10/31 06:47:21;;;;;;;1.53;1.00;;;11.10;99.90;;;;;;4231916;28;20201;-80
2023/10/31 06:49:23;;;;;;;1.13;1.03;;;11.10;99.90;;;;;;4233908;27;20216;-80
2023/10/31 06:51:24;;;;;;;1.10;1.00;;;11.10;99.90;;;;;;4231902;27;20213;-82
2023/10/31 06:53:26;;;;;;;1.20;1.10;;;11.00;99.90;;;;;;4240357;27;20248;-83
2023/10/31 06:55:28;;;;;;;1.33;1.00;;;11.10;99.90;;;;;;4231822;28;20205;-82
2023/10/31 06:57:30;;;;;;;2.13;1.10;;;11.10;99.90;;;;;;4227022;28;20303;-81
2023/10/31 06:59:35;;;;;;;4.23;1.00;;;11.10;99.90;;;;;;4228462;28;20220;-81
2023/10/31 07:01:37;;;;;;;1.00;0.90;;;11.40;99.90;;;;;;4225070;28;20253;-82
2023/10/31 07:03:39;;;;;;;4.13;0.93;;;11.10;99.90;;;;;;4231212;28;20237;-81
2023/10/31 07:05:40;;;;;;;2.17;1.27;;;11.10;99.90;;;;;;4232741;27;20207;-82
2023/10/31 07:07:42;;;;;;;3.87;1.10;;;11.10;99.90;;;;;;4225867;28;20240;-82
2023/10/31 07:09:44;;;;;;;2.13;0.97;;;11.20;99.90;;;;;;4227649;28;20843;-82
2023/10/31 07:11:46;;;;;;;2.17;1.20;;;11.10;99.90;;;;;;4225007;28;20204;-82
2023/10/31 07:13:48;;;;;;;2.40;1.00;;;11.40;99.90;;;;;;4223707;28;20236;-82
2023/10/31 07:15:51;;;;;;;1.00;0.80;;;11.20;99.90;;;;;;4230259;28;20214;-82
2023/10/31 07:17:53;;;;;;;1.33;1.00;;;11.30;99.90;;;;;;4219131;28;20322;-82
2023/10/31 07:19:55;;;;;;;1.60;0.97;;;11.20;99.90;;;;;;4233717;28;20196;-81
2023/10/31 07:21:57;;;;;;;1.30;1.00;;;11.20;99.90;;;;;;4232215;28;20768;-81
2023/10/31 07:23:59;;;;;;;1.43;1.07;;;11.20;99.90;;;;;;4225643;28;20236;-81
2023/10/31 07:26:01;;;;;;;1.43;0.90;;;11.20;99.90;;;;;;4219110;28;20303;-81
2023/10/31 07:28:03;;;;;;;4.17;1.07;;;11.20;99.90;;;;;;4225901;28;20284;-82
2023/10/31 07:30:06;;;;;;;1.03;0.80;;;11.20;99.90;;;;;;4221461;28;20200;-81
2023/10/31 07:32:10;;;;;;;1.33;0.70;;;11.20;99.90;;;;;;4224752;28;20215;-81
2023/10/31 07:34:12;;;;;;;2.23;0.73;;;11.20;99.90;;;;;;4225216;28;20224;-81
2023/10/31 07:36:14;;;;;;;1.17;0.60;;;11.20;99.90;;;;;;4229815;28;20210;-81
2023/10/31 07:38:16;;;;;;;1.17;0.80;;;11.20;99.90;;;;;;4230082;28;20740;-81
2023/10/31 07:40:18;;;;;;;1.60;1.00;;;11.40;99.90;;;;;;4227943;28;20282;-81
2023/10/31 07:42:20;;;;;;;2.57;1.00;;;11.30;99.90;;;;;;4227920;28;20212;-81
2023/10/31 07:44:22;;;;;;;1.40;0.60;;;11.20;99.90;;;;;;4228649;27;20588;-81
2023/10/31 07:46:23;;;;;;;0.83;0.50;;;11.30;99.90;;;;;;4228889;28;20212;-82
2023/10/31 07:48:26;;;;;;;2.30;0.77;;;11.30;99.90;;;;;;4231018;28;20220;-81
2023/10/31 07:50:28;;;;;;;2.00;0.70;;;11.30;99.90;;;;;;4230802;28;20211;-81
2023/10/31 07:52:30;;;;;;;2.00;0.60;;;11.30;99.90;;;;;;4230565;28;20200;-81
2023/10/31 07:54:31;;;;;;;1.43;0.60;;;11.30;99.90;;;;;;4236994;28;20227;-81
2023/10/31 07:56:34;;;;;;;2.30;0.57;;;11.30;99.90;;;;;;4232012;28;20231;-82
2023/10/31 07:58:36;;;;;;;1.83;0.70;;;11.30;99.90;;;;;;4228695;28;20197;-81
2023/10/31 08:00:39;;;;;;;1.33;0.90;;;11.30;99.90;;;;;;4222270;28;20201;-81
2023/10/31 08:02:40;;;;;;;0.70;0.50;;;11.30;99.90;;;;;;4233349;28;20238;-81
2023/10/31 08:04:47;;;;;;;0.80;0.50;;;11.30;99.90;;;;;;4232595;28;20211;-81
2023/10/31 08:06:49;;;;;;;0.63;0.63;;;11.30;99.90;;;;;;4231795;28;20204;-81
2023/10/31 08:08:51;;;;;;;0.83;0.60;;;11.40;99.90;;;;;;4228250;28;20292;-81
2023/10/31 08:10:52;;;;;;;0.80;0.60;;;11.40;99.90;;;;;;4222742;28;20204;-82
2023/10/31 08:12:53;;;;;;;1.20;0.60;;;11.40;99.90;;;;;;4230367;28;20253;-81
2023/10/31 08:14:55;;;;;;;1.53;0.60;;;11.40;99.90;;;;;;4223304;28;20210;-81
2023/10/31 08:16:57;;;;;;;0.70;0.70;;;11.40;99.90;;;;;;4228030;28;20209;-81
2023/10/31 08:18:59;;;;;;;1.40;0.67;;;11.50;99.90;;;;;;4227569;28;20209;-81
2023/10/31 08:21:03;;;;;;;3.13;1.00;;;11.50;99.90;;;;;;4230331;28;20217;-81
2023/10/31 08:23:05;;;;;;;1.53;0.60;;;11.50;99.90;;;;;;4229680;28;20228;-80
2023/10/31 08:25:08;;;;;;;1.33;0.70;;;11.40;99.90;;;;;;4227119;28;20238;-80
2023/10/31 08:27:10;;;;;;;3.27;0.60;;;11.50;99.90;;;;;;4221872;28;20296;-80
2023/10/31 08:29:12;;;;;;;1.40;0.60;;;11.50;99.90;;;;;;4224370;28;20227;-79
2023/10/31 08:31:15;;;;;;;1.23;0.50;;;11.50;99.90;;;;;;4222698;28;20218;-80
2023/10/31 08:33:16;;;;;;;0.73;0.50;;;11.50;99.90;;;;;;4222402;28;20261;-80
2023/10/31 08:35:21;;;;;;;1.00;0.40;;;11.60;99.90;;;;;;4221575;28;20473;-80
2023/10/31 08:37:24;;;;;;;1.93;0.67;;;11.60;99.90;;;;;;4225123;28;20213;-80
2023/10/31 08:39:27;;;;;;;1.40;0.63;;;11.50;99.90;;;;;;4221995;28;20668;-79
2023/10/31 08:41:28;;;;;;;0.80;0.50;;;11.60;99.90;;;;;;4224940;28;20214;-80
2023/10/31 08:43:30;;;;;;;1.03;0.50;;;11.60;99.90;;;;;;4222770;28;20292;-79
2023/10/31 08:45:32;;;;;;;0.50;0.50;;;11.60;99.90;;;;;;4223506;28;20204;-80
2023/10/31 08:47:33;;;;;;;1.30;0.50;;;11.70;99.90;;;;;;4218915;28;20205;-80
2023/10/31 08:49:35;;;;;;;1.13;0.40;;;11.70;99.90;;;;;;4222574;27;20748;-80
2023/10/31 08:51:37;;;;;;;1.27;0.37;;;11.80;99.90;;;;;;4227631;28;20210;-80
2023/10/31 08:53:40;;;;;;;1.20;0.40;;;11.80;99.90;;;;;;4230969;27;20229;-80
2023/10/31 08:55:43;;;;;;;1.57;0.53;;;11.80;99.90;;;;;;4226404;28;20261;-80
2023/10/31 08:57:45;;;;;;;2.77;0.60;;;11.80;99.90;;;;;;4224779;27;20221;-80
2023/10/31 08:59:47;;;;;;;2.90;0.60;;;11.90;99.90;;;;;;4227251;28;20728;-80
2023/10/31 09:01:49;;;;;;;1.20;0.40;;;11.90;99.90;;;;;;4228019;28;20202;-82
2023/10/31 09:03:51;;;;;;;1.00;0.50;;;12.00;99.90;;;;;;4229773;27;20319;-80
2023/10/31 09:05:53;;;;;;;0.90;0.40;;;12.00;99.90;;;;;;4229632;28;20210;-80
2023/10/31 09:07:55;;;;;;;0.40;0.40;;;12.00;99.90;;;;;;4229203;27;20669;-80
2023/10/31 09:09:58;;;;;;;1.00;0.50;;;12.10;99.90;;;;;;4227669;27;20214;-80
2023/10/31 09:12:00;;;;;;;1.93;0.50;;;12.10;99.90;;;;;;4236002;27;20205;-81
2023/10/31 09:14:01;;;;;;;1.20;0.47;;;12.10;99.90;;;;;;4232264;27;20225;-80
2023/10/31 09:16:04;;;;;;;0.33;0.30;;;12.00;99.90;;;;;;4238321;27;20210;-80
2023/10/31 09:18:06;;;;;;;1.30;0.67;;;12.00;99.90;;;;;;4237443;27;20272;-81
2023/10/31 09:20:09;;;;;;;2.07;0.70;;;11.90;99.90;;;;;;4236553;27;20222;-81
2023/10/31 09:22:11;;;;;;;0.90;0.50;;;11.90;99.90;;;;;;4237587;28;20235;-81
2023/10/31 09:24:12;;;;;;;1.03;0.40;;;11.80;99.90;;;;;;4233373;27;20234;-80
2023/10/31 09:26:17;;;;;;;0.97;0.50;;;11.80;99.90;;;;;;4230390;27;20206;-81
2023/10/31 09:28:19;;;;;;;0.37;0.30;;;11.90;99.90;;;;;;4229674;28;20204;-80
2023/10/31 09:30:23;;;;;;;4.43;0.40;;;11.80;99.90;;;;;;4229231;27;20238;-80
2023/10/31 09:32:25;;;;;;;3.77;1.00;;;11.90;99.90;;;;;;4225156;27;20840;-80
2023/10/31 09:34:27;;;;;;;1.20;0.43;;;11.90;99.90;;;;;;4231407;27;20649;-81
2023/10/31 09:36:29;;;;;;;0.40;0.40;;;11.90;99.90;;;;;;4230304;27;20215;-80
2023/10/31 09:38:31;;;;;;;0.80;0.30;;;11.90;99.90;;;;;;4227387;27;20211;-80
2023/10/31 09:40:33;;;;;;;0.40;0.23;;;11.90;99.90;;;;;;4230991;27;20227;-80
2023/10/31 09:42:37;;;;;;;1.70;0.40;;;12.00;99.90;;;;;;4229199;27;20211;-80
2023/10/31 09:44:39;;;;;;;2.30;0.30;;;12.00;99.90;;;;;;4232554;27;20624;-80
2023/10/31 09:46:40;;;;;;;1.10;0.50;;;12.10;99.90;;;;;;4228538;27;20213;-77
2023/10/31 09:48:44;;;;;;;0.70;0.40;;;12.20;99.90;;;;;;4229372;28;20224;-77
2023/10/31 09:50:46;;;;;;;0.30;0.30;;;12.20;99.90;;;;;;4226067;28;20705;-77
2023/10/31 09:52:48;;;;;;;0.67;0.30;;;12.20;99.90;;;;;;4230431;27;20563;-80
2023/10/31 09:54:50;;;;;;;1.03;0.30;;;12.30;99.90;;;;;;4232447;27;20698;-79
2023/10/31 09:56:52;;;;;;;1.27;0.27;;;12.30;99.90;;;;;;4225713;27;20568;-79
2023/10/31 09:58:58;;;;;;;0.37;0.30;;;12.30;99.90;;;;;;4227221;27;20208;-79
2023/10/31 10:01:00;;;;;;;0.63;0.63;;;12.40;99.90;;;;;;4221046;28;20750;-80
2023/10/31 10:03:01;;;;;;;1.50;0.27;;;12.40;99.90;;;;;;4226153;28;20227;-80
2023/10/31 10:05:05;;;;;;;0.47;0.20;;;12.40;99.90;;;;;;4226815;27;20273;-79
2023/10/31 10:07:07;;;;;;;2.30;0.30;;;12.50;99.90;;;;;;4229770;28;20205;-79
2023/10/31 10:09:09;;;;;;;0.60;0.30;;;12.60;99.90;;;;;;4228511;28;20222;-79
2023/10/31 10:11:12;;;;;;;0.40;0.30;;;12.50;99.90;;;;;;4226248;28;20218;-79
2023/10/31 10:13:14;;;;;;;1.03;0.50;;;12.60;99.90;;;;;;4224447;27;20278;-79
2023/10/31 10:15:17;;;;;;;2.97;0.30;;;12.70;99.90;;;;;;4225920;28;20615;-80
2023/10/31 10:17:22;;;;;;;6.13;0.30;;;12.80;99.90;;;;;;4226610;27;20236;-80
2023/10/31 10:19:23;;;;;;;1.93;0.30;;;12.90;99.90;;;;;;4222959;27;20230;-80
2023/10/31 10:21:26;;;;;;;2.97;0.60;;;13.00;99.90;;;;;;4226236;27;20250;-80
2023/10/31 10:23:28;;;;;;;3.23;1.07;;;13.00;99.90;;;;;;4226262;27;20323;-79
2023/10/31 10:25:30;;;;;;;1.60;0.93;;;13.10;99.90;;;;;;4223851;27;20198;-79
2023/10/31 10:27:31;;;;;;;1.00;0.60;;;13.10;99.90;;;;;;4225992;28;20249;-80
2023/10/31 10:29:33;;;;;;;1.03;0.40;;;13.20;99.90;;;;;;4226810;28;20699;-80
2023/10/31 10:31:36;;;;;;;0.83;0.40;;;13.40;99.90;;;;;;4226988;28;20253;-80